Terminal Aerodrome Forecast
Issued by NWS Austin/San Antonio, TX

Home | Current Version | Previous Version | Text Only | Print | Product List | Glossary On
Versions: 1 2 3 4 5 6 7 8 9 10 11 12 13 14
000
FTUS44 KEWX 300534
TAFAUS
TAF
KAUS 300534Z 3006/3112 16008KT P6SM BKN150 OVC250
     FM300900 20004KT P6SM SCT020 BKN080
     FM301800 17010KT P6SM BKN150=

USA.gov is the U.S. government's official web portal to all federal, state and local government web resources and services.